Accueil
METAR-TAF:

METAR-TAF

Aéroports :

Middle Wallop, Angleterre

Army Air Corps Middle Wallop

latitude: 51-09N, longitude: 001-34W, altitude: 91 m

Observation

Le bulletin a été fait il y a 54 minutes, à 00:50 UTC
Vent 10 kt de sud-ouest
Température 12°C
Humidité 76%
Pression 1019 hPa
Visibilité 10 km ou plus

METAR: EGVP 170050Z AUTO 22010KT 9999 // NCD 12/08 Q1019

Heure: 02:44 (01:44 UTC)

Prévision

Le bulletin a été fait il y a 6 heures et 15 minutes, à 19:29 UTC
Prévision valable du 16 à 21 UTC au 16 à 24 UTC
Vent 16 kt de sud/sud-ouest
Visibilité 10 km ou plus
Nuages épars à une hauteur de 3600 ft
Probabilité 30% :
Temporairement
du 16 à 21 UTC au 16 à 22 UTC
Vent 16 kt de sud-ouest avec des rafales jusqu'à 26 kt

TAF: EGVP 161929Z 1621/1624 21016KT 9999 SCT036 PROB30 TEMPO 1621/1622 23016G26KT

Observations et prévisions météorologiques de plus de 4000 aéroports (messages METAR et TAF).

Les stations disponibles sont représentées par des disques jaunes et rouges sur la carte.

Passer la souris dessus pour voir le nom de la station.

Cliquer dessus pour voir les observations et prévisions météorologiques.

Pour changer de carte: cliquez sur les boutons verts avec une croix noire pour zoomer, sur le bouton vert avec un tiret pour effectuer un zoom arrière, ou sur les flèches vertes pour les cartes adjacentes.


METAR-TAF: